sensor_id;sensor_type;location;lat;lon;timestamp;temperature;humidity
43227;DHT22;28839;52.404;9.808;2023-07-24T00:03:31;18.60;99.90
43227;DHT22;28839;52.404;9.808;2023-07-24T00:10:25;18.60;99.90
43227;DHT22;28839;52.404;9.808;2023-07-24T00:17:20;18.70;99.90
43227;DHT22;28839;52.404;9.808;2023-07-24T00:24:14;18.70;99.90
43227;DHT22;28839;52.404;9.808;2023-07-24T00:31:08;18.60;99.90
43227;DHT22;28839;52.404;9.808;2023-07-24T00:38:03;18.60;99.90
43227;DHT22;28839;52.404;9.808;2023-07-24T00:44:57;18.60;99.90
43227;DHT22;28839;52.404;9.808;2023-07-24T00:51:51;18.50;99.90
43227;DHT22;28839;52.404;9.808;2023-07-24T00:58:47;18.60;99.90
43227;DHT22;28839;52.404;9.808;2023-07-24T01:05:41;18.50;99.90
43227;DHT22;28839;52.404;9.808;2023-07-24T01:12:36;18.60;99.90
43227;DHT22;28839;52.404;9.808;2023-07-24T01:19:36;18.70;99.90
43227;DHT22;28839;52.404;9.808;2023-07-24T01:26:32;18.70;99.90
43227;DHT22;28839;52.404;9.808;2023-07-24T01:33:26;18.70;99.90
43227;DHT22;28839;52.404;9.808;2023-07-24T01:40:21;18.70;99.90
43227;DHT22;28839;52.404;9.808;2023-07-24T01:47:17;18.80;99.90
43227;DHT22;28839;52.404;9.808;2023-07-24T01:54:11;18.70;99.90
43227;DHT22;28839;52.404;9.808;2023-07-24T02:01:05;18.70;99.90
43227;DHT22;28839;52.404;9.808;2023-07-24T02:08:00;18.70;99.90
43227;DHT22;28839;52.404;9.808;2023-07-24T02:14:54;18.70;99.90
43227;DHT22;28839;52.404;9.808;2023-07-24T02:21:47;18.70;99.90
43227;DHT22;28839;52.404;9.808;2023-07-24T02:28:43;18.80;99.90
43227;DHT22;28839;52.404;9.808;2023-07-24T02:35:38;18.60;99.90
43227;DHT22;28839;52.404;9.808;2023-07-24T02:42:33;18.50;99.90
43227;DHT22;28839;52.404;9.808;2023-07-24T02:49:28;18.50;99.90
43227;DHT22;28839;52.404;9.808;2023-07-24T02:56:22;18.40;99.90
43227;DHT22;28839;52.404;9.808;2023-07-24T03:03:16;18.50;99.90
43227;DHT22;28839;52.404;9.808;2023-07-24T03:10:11;18.60;99.90
43227;DHT22;28839;52.404;9.808;2023-07-24T03:17:05;18.70;99.90
43227;DHT22;28839;52.404;9.808;2023-07-24T03:23:59;18.70;99.90
43227;DHT22;28839;52.404;9.808;2023-07-24T03:30:54;18.70;99.90
43227;DHT22;28839;52.404;9.808;2023-07-24T03:37:48;18.60;99.90
43227;DHT22;28839;52.404;9.808;2023-07-24T03:44:42;18.60;99.90
43227;DHT22;28839;52.404;9.808;2023-07-24T03:51:37;18.70;99.90
43227;DHT22;28839;52.404;9.808;2023-07-24T03:58:31;18.60;99.90
43227;DHT22;28839;52.404;9.808;2023-07-24T04:05:24;18.70;99.90
43227;DHT22;28839;52.404;9.808;2023-07-24T04:12:21;18.70;99.90
43227;DHT22;28839;52.404;9.808;2023-07-24T04:19:14;18.60;99.90
43227;DHT22;28839;52.404;9.808;2023-07-24T04:26:08;18.60;99.90
43227;DHT22;28839;52.404;9.808;2023-07-24T04:33:04;18.60;99.90
43227;DHT22;28839;52.404;9.808;2023-07-24T04:39:57;18.60;99.90
43227;DHT22;28839;52.404;9.808;2023-07-24T04:46:51;18.60;99.90
43227;DHT22;28839;52.404;9.808;2023-07-24T04:53:46;18.60;99.90
43227;DHT22;28839;52.404;9.808;2023-07-24T05:00:40;18.60;99.90
43227;DHT22;28839;52.404;9.808;2023-07-24T05:07:34;18.70;99.90
43227;DHT22;28839;52.404;9.808;2023-07-24T05:14:29;18.90;99.90
43227;DHT22;28839;52.404;9.808;2023-07-24T05:21:23;18.90;99.90
43227;DHT22;28839;52.404;9.808;2023-07-24T05:28:17;19.10;99.90
43227;DHT22;28839;52.404;9.808;2023-07-24T05:35:12;19.50;99.90
43227;DHT22;28839;52.404;9.808;2023-07-24T05:42:06;19.70;99.90
43227;DHT22;28839;52.404;9.808;2023-07-24T05:49:00;19.60;99.90
43227;DHT22;28839;52.404;9.808;2023-07-24T05:56:02;19.50;99.90
43227;DHT22;28839;52.404;9.808;2023-07-24T06:02:56;19.30;99.90
43227;DHT22;28839;52.404;9.808;2023-07-24T06:09:50;18.60;99.90
43227;DHT22;28839;52.404;9.808;2023-07-24T06:16:45;18.50;99.90
43227;DHT22;28839;52.404;9.808;2023-07-24T06:23:39;18.60;99.90
43227;DHT22;28839;52.404;9.808;2023-07-24T06:30:33;18.70;99.90
43227;DHT22;28839;52.404;9.808;2023-07-24T06:37:28;18.70;99.90
43227;DHT22;28839;52.404;9.808;2023-07-24T06:44:22;18.70;99.90
43227;DHT22;28839;52.404;9.808;2023-07-24T06:51:15;18.80;99.90
43227;DHT22;28839;52.404;9.808;2023-07-24T06:58:11;18.80;99.90
43227;DHT22;28839;52.404;9.808;2023-07-24T07:05:05;18.90;99.90
43227;DHT22;28839;52.404;9.808;2023-07-24T07:11:58;18.80;99.90
43227;DHT22;28839;52.404;9.808;2023-07-24T07:18:54;18.90;99.90
43227;DHT22;28839;52.404;9.808;2023-07-24T07:25:47;19.00;99.90
43227;DHT22;28839;52.404;9.808;2023-07-24T07:32:42;19.00;99.90
43227;DHT22;28839;52.404;9.808;2023-07-24T07:39:37;19.10;99.90
43227;DHT22;28839;52.404;9.808;2023-07-24T07:46:31;18.90;99.90
43227;DHT22;28839;52.404;9.808;2023-07-24T07:53:25;18.70;99.90
43227;DHT22;28839;52.404;9.808;2023-07-24T08:00:20;18.50;99.90
43227;DHT22;28839;52.404;9.808;2023-07-24T08:07:14;18.40;99.90
43227;DHT22;28839;52.404;9.808;2023-07-24T08:14:08;18.40;99.90
43227;DHT22;28839;52.404;9.808;2023-07-24T08:21:04;18.50;99.90
43227;DHT22;28839;52.404;9.808;2023-07-24T08:27:58;18.90;99.90
43227;DHT22;28839;52.404;9.808;2023-07-24T08:34:52;18.90;99.90
43227;DHT22;28839;52.404;9.808;2023-07-24T08:41:47;18.90;99.90
43227;DHT22;28839;52.404;9.808;2023-07-24T08:48:42;19.00;99.90
43227;DHT22;28839;52.404;9.808;2023-07-24T08:55:36;18.90;99.90
43227;DHT22;28839;52.404;9.808;2023-07-24T09:02:33;19.60;99.90
43227;DHT22;28839;52.404;9.808;2023-07-24T09:09:30;21.30;99.90
43227;DHT22;28839;52.404;9.808;2023-07-24T09:16:25;21.00;99.90
43227;DHT22;28839;52.404;9.808;2023-07-24T09:23:27;20.90;99.90
43227;DHT22;28839;52.404;9.808;2023-07-24T09:30:21;21.10;99.90
43227;DHT22;28839;52.404;9.808;2023-07-24T09:37:23;20.60;99.90
43227;DHT22;28839;52.404;9.808;2023-07-24T09:44:19;20.30;99.90
43227;DHT22;28839;52.404;9.808;2023-07-24T09:51:13;20.50;99.90
43227;DHT22;28839;52.404;9.808;2023-07-24T09:58:06;20.60;99.90
43227;DHT22;28839;52.404;9.808;2023-07-24T10:05:02;20.70;99.90
43227;DHT22;28839;52.404;9.808;2023-07-24T10:11:57;21.30;99.90
43227;DHT22;28839;52.404;9.808;2023-07-24T10:18:51;21.40;99.90
43227;DHT22;28839;52.404;9.808;2023-07-24T10:25:49;22.20;99.90
43227;DHT22;28839;52.404;9.808;2023-07-24T10:32:48;22.60;99.90
43227;DHT22;28839;52.404;9.808;2023-07-24T10:39:42;22.50;99.90
43227;DHT22;28839;52.404;9.808;2023-07-24T10:46:40;22.20;99.90
43227;DHT22;28839;52.404;9.808;2023-07-24T10:53:35;22.50;99.90
43227;DHT22;28839;52.404;9.808;2023-07-24T11:00:29;22.90;99.90
43227;DHT22;28839;52.404;9.808;2023-07-24T11:07:24;22.70;99.90
43227;DHT22;28839;52.404;9.808;2023-07-24T11:14:18;22.40;99.90
43227;DHT22;28839;52.404;9.808;2023-07-24T11:21:13;23.10;99.90
43227;DHT22;28839;52.404;9.808;2023-07-24T11:28:12;23.60;99.90
43227;DHT22;28839;52.404;9.808;2023-07-24T11:35:07;24.00;99.90
43227;DHT22;28839;52.404;9.808;2023-07-24T11:42:01;23.80;99.90
43227;DHT22;28839;52.404;9.808;2023-07-24T11:48:56;23.50;99.90
43227;DHT22;28839;52.404;9.808;2023-07-24T11:55:51;22.10;99.90
43227;DHT22;28839;52.404;9.808;2023-07-24T12:02:45;21.50;99.90
43227;DHT22;28839;52.404;9.808;2023-07-24T12:09:40;21.90;99.90
43227;DHT22;28839;52.404;9.808;2023-07-24T12:16:34;22.20;99.90
43227;DHT22;28839;52.404;9.808;2023-07-24T12:23:28;22.40;99.90
43227;DHT22;28839;52.404;9.808;2023-07-24T12:30:23;21.80;99.90
43227;DHT22;28839;52.404;9.808;2023-07-24T12:37:17;21.60;99.90
43227;DHT22;28839;52.404;9.808;2023-07-24T12:44:11;21.10;99.90
43227;DHT22;28839;52.404;9.808;2023-07-24T12:51:07;20.80;99.90
43227;DHT22;28839;52.404;9.808;2023-07-24T12:58:00;20.50;99.90
43227;DHT22;28839;52.404;9.808;2023-07-24T13:04:55;20.30;99.90
43227;DHT22;28839;52.404;9.808;2023-07-24T13:11:50;20.40;99.90
43227;DHT22;28839;52.404;9.808;2023-07-24T13:18:47;20.60;99.90
43227;DHT22;28839;52.404;9.808;2023-07-24T13:25:41;20.80;99.90
43227;DHT22;28839;52.404;9.808;2023-07-24T13:32:36;20.80;99.90
43227;DHT22;28839;52.404;9.808;2023-07-24T13:39:30;21.40;99.90
43227;DHT22;28839;52.404;9.808;2023-07-24T13:46:23;21.40;99.90
43227;DHT22;28839;52.404;9.808;2023-07-24T13:53:19;21.40;99.90
43227;DHT22;28839;52.404;9.808;2023-07-24T14:00:13;21.30;99.90
43227;DHT22;28839;52.404;9.808;2023-07-24T14:07:07;20.80;99.90
43227;DHT22;28839;52.404;9.808;2023-07-24T14:14:03;20.60;99.90
43227;DHT22;28839;52.404;9.808;2023-07-24T14:20:57;19.90;99.90
43227;DHT22;28839;52.404;9.808;2023-07-24T14:27:52;19.40;99.90
43227;DHT22;28839;52.404;9.808;2023-07-24T14:34:50;19.10;99.90
43227;DHT22;28839;52.404;9.808;2023-07-24T14:41:44;19.00;99.90
43227;DHT22;28839;52.404;9.808;2023-07-24T14:48:38;18.80;99.90
43227;DHT22;28839;52.404;9.808;2023-07-24T14:55:33;18.60;99.90
43227;DHT22;28839;52.404;9.808;2023-07-24T15:02:27;18.50;99.90
43227;DHT22;28839;52.404;9.808;2023-07-24T15:09:21;18.20;99.90
43227;DHT22;28839;52.404;9.808;2023-07-24T15:16:16;18.10;99.90
43227;DHT22;28839;52.404;9.808;2023-07-24T15:23:10;18.00;99.90
43227;DHT22;28839;52.404;9.808;2023-07-24T15:30:06;18.30;99.90
43227;DHT22;28839;52.404;9.808;2023-07-24T15:37:02;18.50;99.90
43227;DHT22;28839;52.404;9.808;2023-07-24T15:43:56;18.80;99.90
43227;DHT22;28839;52.404;9.808;2023-07-24T15:50:49;18.90;99.90
43227;DHT22;28839;52.404;9.808;2023-07-24T15:57:44;19.40;99.90
43227;DHT22;28839;52.404;9.808;2023-07-24T16:04:38;19.80;99.90
43227;DHT22;28839;52.404;9.808;2023-07-24T16:11:32;20.00;99.90
43227;DHT22;28839;52.404;9.808;2023-07-24T16:18:27;20.40;99.90
43227;DHT22;28839;52.404;9.808;2023-07-24T16:25:21;20.70;99.90
43227;DHT22;28839;52.404;9.808;2023-07-24T16:32:15;20.90;99.90
43227;DHT22;28839;52.404;9.808;2023-07-24T16:39:10;20.60;99.90
43227;DHT22;28839;52.404;9.808;2023-07-24T16:46:04;20.60;99.90
43227;DHT22;28839;52.404;9.808;2023-07-24T16:52:58;20.80;99.90
43227;DHT22;28839;52.404;9.808;2023-07-24T16:59:53;20.30;99.90
43227;DHT22;28839;52.404;9.808;2023-07-24T17:06:47;20.20;99.90
43227;DHT22;28839;52.404;9.808;2023-07-24T17:13:41;20.10;99.90
43227;DHT22;28839;52.404;9.808;2023-07-24T17:20:36;19.90;99.90
43227;DHT22;28839;52.404;9.808;2023-07-24T17:27:31;19.80;99.90
43227;DHT22;28839;52.404;9.808;2023-07-24T17:34:26;19.70;99.90
43227;DHT22;28839;52.404;9.808;2023-07-24T17:41:22;19.60;99.90
43227;DHT22;28839;52.404;9.808;2023-07-24T17:48:16;19.60;99.90
43227;DHT22;28839;52.404;9.808;2023-07-24T17:55:09;19.70;99.90
43227;DHT22;28839;52.404;9.808;2023-07-24T18:02:06;19.80;99.90
43227;DHT22;28839;52.404;9.808;2023-07-24T18:09:00;19.70;99.90
43227;DHT22;28839;52.404;9.808;2023-07-24T18:15:54;19.70;99.90
43227;DHT22;28839;52.404;9.808;2023-07-24T18:22:49;19.60;99.90
43227;DHT22;28839;52.404;9.808;2023-07-24T18:29:43;19.40;99.90
43227;DHT22;28839;52.404;9.808;2023-07-24T18:36:37;19.20;99.90
43227;DHT22;28839;52.404;9.808;2023-07-24T18:43:32;19.10;99.90
43227;DHT22;28839;52.404;9.808;2023-07-24T18:50:26;18.90;99.90
43227;DHT22;28839;52.404;9.808;2023-07-24T18:57:20;19.00;99.90
43227;DHT22;28839;52.404;9.808;2023-07-24T19:04:15;16.60;99.90
43227;DHT22;28839;52.404;9.808;2023-07-24T19:11:09;16.50;99.90
43227;DHT22;28839;52.404;9.808;2023-07-24T19:18:03;16.30;99.90
43227;DHT22;28839;52.404;9.808;2023-07-24T19:25:00;16.40;99.90
43227;DHT22;28839;52.404;9.808;2023-07-24T19:31:54;16.30;99.90
43227;DHT22;28839;52.404;9.808;2023-07-24T19:38:48;16.10;99.90
43227;DHT22;28839;52.404;9.808;2023-07-24T19:45:43;16.00;99.90
43227;DHT22;28839;52.404;9.808;2023-07-24T19:52:37;16.10;99.90
43227;DHT22;28839;52.404;9.808;2023-07-24T19:59:31;16.10;99.90
43227;DHT22;28839;52.404;9.808;2023-07-24T20:06:26;16.10;99.90
43227;DHT22;28839;52.404;9.808;2023-07-24T20:13:20;16.10;99.90
43227;DHT22;28839;52.404;9.808;2023-07-24T20:20:13;16.10;99.90
43227;DHT22;28839;52.404;9.808;2023-07-24T20:27:09;16.00;99.90
43227;DHT22;28839;52.404;9.808;2023-07-24T20:34:02;16.00;99.90
43227;DHT22;28839;52.404;9.808;2023-07-24T20:40:57;15.90;99.90
43227;DHT22;28839;52.404;9.808;2023-07-24T20:47:52;15.90;99.90
43227;DHT22;28839;52.404;9.808;2023-07-24T20:54:46;15.80;99.90
43227;DHT22;28839;52.404;9.808;2023-07-24T21:01:40;15.70;99.90
43227;DHT22;28839;52.404;9.808;2023-07-24T21:08:35;15.80;99.90
43227;DHT22;28839;52.404;9.808;2023-07-24T21:15:29;15.80;99.90
43227;DHT22;28839;52.404;9.808;2023-07-24T21:22:23;15.70;99.90
43227;DHT22;28839;52.404;9.808;2023-07-24T21:29:19;15.70;99.90
43227;DHT22;28839;52.404;9.808;2023-07-24T21:36:12;15.70;99.90
43227;DHT22;28839;52.404;9.808;2023-07-24T21:43:06;15.70;99.90
43227;DHT22;28839;52.404;9.808;2023-07-24T21:50:02;15.70;99.90
43227;DHT22;28839;52.404;9.808;2023-07-24T21:56:55;15.70;99.90
43227;DHT22;28839;52.404;9.808;2023-07-24T22:03:49;15.70;99.90
43227;DHT22;28839;52.404;9.808;2023-07-24T22:10:44;15.70;99.90
43227;DHT22;28839;52.404;9.808;2023-07-24T22:17:38;15.60;99.90
43227;DHT22;28839;52.404;9.808;2023-07-24T22:24:32;15.60;99.90
43227;DHT22;28839;52.404;9.808;2023-07-24T22:31:30;15.60;99.90
43227;DHT22;28839;52.404;9.808;2023-07-24T22:38:24;15.50;99.90
43227;DHT22;28839;52.404;9.808;2023-07-24T22:45:18;15.50;99.90
43227;DHT22;28839;52.404;9.808;2023-07-24T22:52:13;15.40;99.90
43227;DHT22;28839;52.404;9.808;2023-07-24T22:59:18;15.10;99.90
43227;DHT22;28839;52.404;9.808;2023-07-24T23:06:12;15.00;99.90
43227;DHT22;28839;52.404;9.808;2023-07-24T23:13:07;14.80;99.90
43227;DHT22;28839;52.404;9.808;2023-07-24T23:20:01;14.60;99.90
43227;DHT22;28839;52.404;9.808;2023-07-24T23:26:55;14.60;99.90
43227;DHT22;28839;52.404;9.808;2023-07-24T23:33:50;14.60;99.90
43227;DHT22;28839;52.404;9.808;2023-07-24T23:40:44;14.50;99.90
43227;DHT22;28839;52.404;9.808;2023-07-24T23:47:37;14.40;99.90
43227;DHT22;28839;52.404;9.808;2023-07-24T23:54:33;14.50;99.90
